createdAt,value
2018-11-11T00:00:08.489Z,100697.60
2018-11-11T00:01:09.209Z,100697.77
2018-11-11T00:02:09.650Z,100698.28
2018-11-11T00:03:10.945Z,100699.00
2018-11-11T00:04:11.078Z,100699.92
2018-11-11T00:05:11.795Z,100700.86
2018-11-11T00:06:12.613Z,100701.11
2018-11-11T00:07:12.410Z,100701.53
2018-11-11T00:08:13.669Z,100702.08
2018-11-11T00:09:13.890Z,100702.30
2018-11-11T00:10:14.366Z,100703.19
2018-11-11T00:11:14.683Z,100704.00
2018-11-11T00:12:15.039Z,100704.39
2018-11-11T00:13:15.425Z,100704.30
2018-11-11T00:14:15.755Z,100704.56
2018-11-11T00:15:16.376Z,100704.44
2018-11-11T00:16:16.727Z,100704.70
2018-11-11T00:17:17.457Z,100705.34
2018-11-11T00:18:18.059Z,100705.59
2018-11-11T00:19:18.823Z,100705.78
2018-11-11T00:20:19.560Z,100706.30
2018-11-11T00:21:19.853Z,100706.27
2018-11-11T00:22:20.245Z,100706.90
2018-11-11T00:23:20.858Z,100707.50
2018-11-11T00:24:21.203Z,100708.05
2018-11-11T00:25:20.592Z,100707.72
2018-11-11T00:26:22.262Z,100707.94
2018-11-11T00:27:22.801Z,100708.03
2018-11-11T00:28:23.450Z,100708.75
2018-11-11T00:29:23.737Z,100709.02
2018-11-11T00:30:24.270Z,100709.90
2018-11-11T00:31:24.536Z,100710.37
2018-11-11T00:32:24.925Z,100711.05
2018-11-11T00:33:25.204Z,100711.31
2018-11-11T00:34:25.459Z,100711.91
2018-11-11T00:35:25.994Z,100712.33
2018-11-11T00:36:25.386Z,100712.96
2018-11-11T00:37:26.723Z,100714.45
2018-11-11T00:38:26.014Z,100716.11
2018-11-11T00:39:27.580Z,100717.21
2018-11-11T00:40:26.950Z,100719.23
2018-11-11T00:41:27.266Z,100721.42
2018-11-11T00:42:28.560Z,100723.38
2018-11-11T00:43:29.110Z,100725.78
2018-11-11T00:44:29.580Z,100727.93
2018-11-11T00:45:29.906Z,100729.91
2018-11-11T00:45:38.342Z,100755.63
2018-11-11T00:46:39.591Z,100755.03
2018-11-11T00:47:39.882Z,100755.20
2018-11-11T00:48:40.203Z,100755.54
2018-11-11T00:49:40.819Z,100755.80
2018-11-11T00:50:41.129Z,100755.96
2018-11-11T00:51:41.451Z,100756.38
2018-11-11T00:52:41.805Z,100756.80
2018-11-11T00:53:42.244Z,100756.85
2018-11-11T00:54:42.500Z,100757.61
2018-11-11T00:55:42.879Z,100757.94
2018-11-11T00:56:43.245Z,100759.17
2018-11-11T00:57:43.558Z,100759.47
2018-11-11T00:58:43.857Z,100760.17
2018-11-11T00:59:44.205Z,100761.15
2018-11-11T01:00:44.449Z,100761.95
2018-11-11T01:01:44.699Z,100762.75
2018-11-11T01:02:45.113Z,100763.38
2018-11-11T01:03:45.422Z,100763.67
2018-11-11T01:04:46.278Z,100764.31
2018-11-11T01:05:46.590Z,100764.91
2018-11-11T01:06:47.394Z,100765.78
2018-11-11T01:07:47.853Z,100766.55
2018-11-11T01:08:48.149Z,100767.66
2018-11-11T01:09:48.865Z,100768.14
2018-11-11T01:10:49.793Z,100768.06
2018-11-11T01:11:50.084Z,100768.40
2018-11-11T01:12:50.610Z,100768.56
2018-11-11T01:13:50.857Z,100769.10
2018-11-11T01:14:51.232Z,100769.70
2018-11-11T01:15:51.625Z,100770.24
2018-11-11T01:16:52.004Z,100771.26
2018-11-11T01:17:52.480Z,100772.09
2018-11-11T01:18:52.735Z,100772.57
2018-11-11T01:19:53.109Z,100773.58
2018-11-11T01:20:53.533Z,100774.38
2018-11-11T01:21:53.860Z,100775.31
2018-11-11T01:22:54.405Z,100776.58
2018-11-11T01:23:54.993Z,100777.13
2018-11-11T01:24:55.588Z,100777.30
2018-11-11T01:25:56.132Z,100778.22
2018-11-11T01:26:56.715Z,100778.56
2018-11-11T01:27:57.078Z,100778.59
2018-11-11T01:28:57.380Z,100778.36
2018-11-11T01:29:06.301Z,100781.98
2018-11-11T01:30:06.627Z,100781.73
2018-11-11T01:31:07.040Z,100782.33
2018-11-11T01:32:07.313Z,100782.53
2018-11-11T01:33:07.723Z,100782.58
2018-11-11T01:34:08.064Z,100782.42
2018-11-11T01:35:07.350Z,100782.46
2018-11-11T01:36:08.834Z,100782.26
2018-11-11T01:37:09.266Z,100782.42
2018-11-11T01:38:09.628Z,100782.63
2018-11-11T01:39:09.903Z,100783.05
2018-11-11T01:40:10.535Z,100783.27
2018-11-11T01:41:10.894Z,100783.35
2018-11-11T01:42:11.233Z,100783.34
2018-11-11T01:43:11.632Z,100783.52
2018-11-11T01:44:12.138Z,100783.27
2018-11-11T01:45:12.775Z,100782.97
2018-11-11T01:46:13.103Z,100782.96
2018-11-11T01:47:13.484Z,100781.83
2018-11-11T01:48:14.119Z,100780.52
2018-11-11T01:49:14.376Z,100779.89
2018-11-11T01:50:14.844Z,100779.09
2018-11-11T01:51:15.140Z,100778.06
2018-11-11T01:52:15.702Z,100777.52
2018-11-11T01:53:16.002Z,100776.64
2018-11-11T01:54:16.342Z,100775.28
2018-11-11T01:55:16.652Z,100774.52
2018-11-11T01:56:17.186Z,100773.50
2018-11-11T01:57:17.456Z,100772.48
2018-11-11T01:58:17.826Z,100772.03
2018-11-11T01:59:18.250Z,100771.35
2018-11-11T02:00:18.559Z,100770.59
2018-11-11T02:01:19.181Z,100769.91
2018-11-11T02:02:19.561Z,100769.37
2018-11-11T02:03:19.882Z,100768.81
2018-11-11T02:04:20.571Z,100768.38
2018-11-11T02:05:20.784Z,100767.80
2018-11-11T02:06:21.085Z,100767.28
2018-11-11T02:07:21.580Z,100766.99
2018-11-11T02:08:22.036Z,100766.06
2018-11-11T02:09:22.408Z,100765.26
2018-11-11T02:10:22.817Z,100764.45
2018-11-11T02:11:23.131Z,100763.78
2018-11-11T02:12:23.510Z,100762.97
2018-11-11T02:13:23.845Z,100762.89
2018-11-11T02:14:24.568Z,100762.47
2018-11-11T02:14:32.689Z,100756.80
2018-11-11T02:15:33.913Z,100756.47
2018-11-11T02:16:34.837Z,100755.46
2018-11-11T02:17:35.336Z,100755.08
2018-11-11T02:18:35.726Z,100755.33
2018-11-11T02:19:36.050Z,100755.36
2018-11-11T02:20:36.408Z,100755.20
2018-11-11T02:21:36.720Z,100754.98
2018-11-11T02:22:36.449Z,100755.45
2018-11-11T02:23:37.775Z,100756.47
2018-11-11T02:24:38.418Z,100756.41
2018-11-11T02:25:38.692Z,100756.84
2018-11-11T02:26:39.149Z,100757.22
2018-11-11T02:27:39.502Z,100757.22
2018-11-11T02:28:39.982Z,100757.59
2018-11-11T02:29:40.397Z,100757.59
2018-11-11T02:30:40.718Z,100757.80
2018-11-11T02:31:41.301Z,100758.14
2018-11-11T02:32:41.651Z,100758.09
2018-11-11T02:33:42.144Z,100758.81
2018-11-11T02:34:41.384Z,100759.66
2018-11-11T02:35:42.638Z,100759.69
2018-11-11T02:36:43.015Z,100759.61
2018-11-11T02:37:43.427Z,100760.03
2018-11-11T02:38:42.643Z,100759.98
2018-11-11T02:39:43.933Z,100759.91
2018-11-11T02:40:44.335Z,100759.98
2018-11-11T02:41:44.627Z,100759.86
2018-11-11T02:42:44.913Z,100759.77
2018-11-11T02:43:45.193Z,100759.36
2018-11-11T02:44:45.725Z,100759.98
2018-11-11T02:45:46.021Z,100759.98
2018-11-11T02:46:46.303Z,100760.66
2018-11-11T02:47:46.628Z,100760.58
2018-11-11T02:48:47.008Z,100760.41
2018-11-11T02:49:47.340Z,100759.73
2018-11-11T02:50:47.878Z,100759.14
2018-11-11T02:51:48.192Z,100757.96
2018-11-11T02:52:48.818Z,100756.70
2018-11-11T02:53:49.284Z,100755.09
2018-11-11T02:54:49.569Z,100753.28
2018-11-11T02:55:49.906Z,100752.02
2018-11-11T02:56:50.246Z,100750.62
2018-11-11T02:57:50.719Z,100749.11
2018-11-11T02:58:51.378Z,100747.89
2018-11-11T02:59:50.651Z,100746.37
2018-11-11T03:00:51.974Z,100745.10
2018-11-11T03:01:52.240Z,100743.89
2018-11-11T03:02:00.632Z,100738.63
2018-11-11T03:03:01.905Z,100737.53
2018-11-11T03:04:02.257Z,100737.03
2018-11-11T03:05:02.625Z,100736.19
2018-11-11T03:06:04.325Z,100735.84
2018-11-11T03:07:02.402Z,100734.95
2018-11-11T03:08:04.597Z,100734.45
2018-11-11T03:09:04.020Z,100733.69
2018-11-11T03:10:04.467Z,100733.27
2018-11-11T03:11:04.796Z,100733.53
2018-11-11T03:12:05.087Z,100733.64
2018-11-11T03:13:05.669Z,100733.48
2018-11-11T03:14:05.877Z,100733.31
2018-11-11T03:15:06.433Z,100733.31
2018-11-11T03:16:06.717Z,100733.31
2018-11-11T03:17:07.052Z,100732.72
2018-11-11T03:18:06.928Z,100732.55
2018-11-11T03:19:08.515Z,100731.87
2018-11-11T03:20:10.060Z,100731.03
2018-11-11T03:21:09.826Z,100730.70
2018-11-11T03:22:10.048Z,100730.36
2018-11-11T03:23:10.355Z,100729.85
2018-11-11T03:24:10.983Z,100730.44
2018-11-11T03:25:11.230Z,100730.78
2018-11-11T03:26:11.273Z,100730.27
2018-11-11T03:27:11.546Z,100729.94
2018-11-11T03:28:11.910Z,100729.43
2018-11-11T03:29:12.278Z,100728.92
2018-11-11T03:30:12.577Z,100728.25
2018-11-11T03:31:14.048Z,100727.45
2018-11-11T03:32:12.869Z,100725.94
2018-11-11T03:33:14.226Z,100725.34
2018-11-11T03:34:14.523Z,100724.00
2018-11-11T03:35:13.770Z,100723.32
2018-11-11T03:36:15.092Z,100721.80
2018-11-11T03:37:15.400Z,100721.55
2018-11-11T03:38:15.080Z,100720.78
2018-11-11T03:39:16.659Z,100720.92
2018-11-11T03:40:16.083Z,100720.38
2018-11-11T03:41:17.351Z,100719.61
2018-11-11T03:42:17.707Z,100719.44
2018-11-11T03:53:24.917Z,100712.86
2018-11-11T03:54:25.790Z,100712.11
2018-11-11T03:55:26.032Z,100712.36
2018-11-11T03:56:26.351Z,100711.85
2018-11-11T03:57:26.510Z,100711.52
2018-11-11T03:58:27.091Z,100711.34
2018-11-11T03:59:26.474Z,100710.50
2018-11-11T04:00:27.727Z,100710.42
2018-11-11T04:01:27.959Z,100710.42
2018-11-11T04:02:28.293Z,100710.59
2018-11-11T04:03:28.590Z,100710.16
2018-11-11T04:04:28.888Z,100709.53
2018-11-11T04:05:29.199Z,100708.86
2018-11-11T04:06:29.454Z,100709.32
2018-11-11T04:07:29.727Z,100709.03
2018-11-11T04:08:30.348Z,100709.33
2018-11-11T04:09:30.699Z,100709.45
2018-11-11T04:10:31.137Z,100709.58
2018-11-11T04:11:30.391Z,100709.88
2018-11-11T04:12:31.713Z,100709.75
2018-11-11T04:13:32.058Z,100709.46
2018-11-11T04:14:32.366Z,100709.20
2018-11-11T04:15:31.667Z,100709.03
2018-11-11T04:16:33.059Z,100708.73
2018-11-11T04:17:33.317Z,100708.57
2018-11-11T04:18:33.618Z,100709.03
2018-11-11T04:19:34.264Z,100709.37
2018-11-11T04:20:34.506Z,100710.08
2018-11-11T04:21:34.777Z,100710.51
2018-11-11T04:22:35.046Z,100711.06
2018-11-11T04:23:35.417Z,100711.98
2018-11-11T04:24:35.703Z,100713.08
2018-11-11T04:25:35.945Z,100713.71
2018-11-11T04:26:36.288Z,100714.17
2018-11-11T04:27:36.558Z,100714.88
2018-11-11T04:28:37.267Z,100715.23
2018-11-11T04:29:37.625Z,100714.64
2018-11-11T04:30:37.976Z,100713.66
2018-11-11T04:31:38.351Z,100712.40
2018-11-11T04:32:38.607Z,100711.64
2018-11-11T04:33:38.968Z,100711.14
2018-11-11T04:34:39.282Z,100710.97
2018-11-11T04:35:39.560Z,100710.88
2018-11-11T04:36:39.862Z,100711.22
2018-11-11T04:37:40.120Z,100711.27
2018-11-11T04:38:40.476Z,100711.85
2018-11-11T04:39:40.751Z,100712.10
2018-11-11T04:39:48.834Z,100714.13
2018-11-11T04:40:50.172Z,100713.72
2018-11-11T04:41:50.696Z,100713.88
2018-11-11T04:42:50.798Z,100714.00
2018-11-11T04:43:51.560Z,100714.09
2018-11-11T04:44:51.738Z,100713.92
2018-11-11T04:45:52.054Z,100714.00
2018-11-11T04:46:52.270Z,100713.72
2018-11-11T04:47:52.576Z,100713.03
2018-11-11T04:48:53.459Z,100712.83
2018-11-11T04:49:53.823Z,100711.98
2018-11-11T04:50:54.155Z,100710.72
2018-11-11T04:51:54.679Z,100710.34
2018-11-11T04:52:54.948Z,100709.46
2018-11-11T04:53:55.244Z,100708.44
2018-11-11T04:54:56.104Z,100707.22
2018-11-11T04:55:55.399Z,100705.45
2018-11-11T04:56:56.641Z,100703.92
2018-11-11T04:57:56.885Z,100702.80
2018-11-11T04:58:57.231Z,100701.74
2018-11-11T04:59:57.496Z,100700.89
2018-11-11T05:00:57.728Z,100700.27
2018-11-11T05:01:58.212Z,100699.63
2018-11-11T05:02:58.486Z,100698.62
2018-11-11T05:03:58.899Z,100697.98
2018-11-11T05:04:59.162Z,100697.02
2018-11-11T05:06:00.404Z,100696.30
2018-11-11T05:06:59.706Z,100696.38
2018-11-11T05:07:59.955Z,100696.34
2018-11-11T05:09:00.553Z,100696.84
2018-11-11T05:10:00.837Z,100697.56
2018-11-11T05:11:01.249Z,100698.41
2018-11-11T05:12:01.530Z,100698.83
2018-11-11T05:13:01.821Z,100699.30
2018-11-11T05:14:01.820Z,100699.77
2018-11-11T05:15:02.165Z,100700.77
2018-11-11T05:16:02.383Z,100701.36
2018-11-11T05:17:02.710Z,100702.67
2018-11-11T05:18:02.936Z,100704.23
2018-11-11T05:19:03.592Z,100705.75
2018-11-11T05:20:03.847Z,100707.31
2018-11-11T05:21:04.141Z,100708.67
2018-11-11T05:22:04.634Z,100710.44
2018-11-11T05:23:03.870Z,100711.36
2018-11-11T05:24:05.193Z,100713.39
2018-11-11T05:25:05.740Z,100714.69
2018-11-11T05:25:14.274Z,100736.16
2018-11-11T05:26:15.543Z,100735.91
2018-11-11T05:27:15.876Z,100736.25
2018-11-11T05:28:16.139Z,100736.00
2018-11-11T05:29:16.466Z,100735.87
2018-11-11T05:30:16.800Z,100736.88
2018-11-11T05:31:17.190Z,100736.13
2018-11-11T05:32:17.899Z,100736.30
2018-11-11T05:33:18.191Z,100736.72
2018-11-11T05:34:18.525Z,100736.38
2018-11-11T05:35:19.043Z,100736.80
2018-11-11T05:36:19.360Z,100736.97
2018-11-11T05:37:19.634Z,100737.35
2018-11-11T05:38:20.063Z,100737.43
2018-11-11T05:39:20.699Z,100737.93
2018-11-11T05:40:21.066Z,100739.08
2018-11-11T05:41:21.378Z,100739.50
2018-11-11T05:42:21.779Z,100740.30
2018-11-11T05:43:22.157Z,100741.56
2018-11-11T05:44:22.416Z,100742.66
2018-11-11T05:45:23.189Z,100743.92
2018-11-11T05:46:23.507Z,100745.48
2018-11-11T05:47:23.915Z,100746.50
2018-11-11T05:48:24.171Z,100747.69
2018-11-11T05:49:24.487Z,100748.36
2018-11-11T05:50:24.822Z,100749.37
2018-11-11T05:51:25.135Z,100750.05
2018-11-11T05:52:25.578Z,100751.64
2018-11-11T05:53:25.871Z,100753.08
2018-11-11T05:54:26.260Z,100754.14
2018-11-11T05:55:26.581Z,100755.23
2018-11-11T05:56:27.503Z,100756.50
2018-11-11T05:57:27.756Z,100758.10
2018-11-11T05:58:28.114Z,100758.61
2018-11-11T05:59:28.462Z,100759.41
2018-11-11T06:00:28.823Z,100759.58
2018-11-11T06:01:29.160Z,100759.63
2018-11-11T06:02:29.625Z,100759.16
2018-11-11T06:03:29.917Z,100759.37
2018-11-11T06:04:30.182Z,100759.63
2018-11-11T06:05:30.494Z,100760.00
2018-11-11T06:06:31.221Z,100759.63
2018-11-11T06:07:31.744Z,100759.75
2018-11-11T06:08:32.120Z,100760.38
2018-11-11T06:08:41.190Z,100772.71
2018-11-11T06:09:41.532Z,100772.87
2018-11-11T06:10:41.830Z,100772.37
2018-11-11T06:11:42.098Z,100772.42
2018-11-11T06:12:42.572Z,100771.75
2018-11-11T06:13:43.889Z,100772.17
2018-11-11T06:14:43.215Z,100772.50
2018-11-11T06:15:44.729Z,100772.67
2018-11-11T06:16:44.001Z,100772.42
2018-11-11T06:17:44.372Z,100772.42
2018-11-11T06:18:44.720Z,100772.67
2018-11-11T06:19:46.288Z,100772.67
2018-11-11T06:20:45.607Z,100772.42
2018-11-11T06:21:45.989Z,100772.76
2018-11-11T06:22:46.416Z,100772.87
2018-11-11T06:23:46.789Z,100773.05
2018-11-11T06:24:47.186Z,100773.59
2018-11-11T06:25:47.595Z,100774.83
2018-11-11T06:26:47.843Z,100776.64
2018-11-11T06:27:48.300Z,100777.91
2018-11-11T06:28:48.886Z,100779.22
2018-11-11T06:29:49.183Z,100780.44
2018-11-11T06:30:49.717Z,100780.90
2018-11-11T06:31:49.957Z,100781.41
2018-11-11T06:32:50.655Z,100782.13
2018-11-11T06:33:50.988Z,100782.55
2018-11-11T06:34:50.220Z,100783.14
2018-11-11T06:35:51.494Z,100783.91
2018-11-11T06:36:51.798Z,100783.94
2018-11-11T06:37:52.043Z,100784.78
2018-11-11T06:38:52.295Z,100785.97
2018-11-11T06:39:52.592Z,100786.64
2018-11-11T06:40:53.020Z,100787.57
2018-11-11T06:41:54.329Z,100788.20
2018-11-11T06:42:53.547Z,100789.37
2018-11-11T06:43:54.494Z,100790.81
2018-11-11T06:44:54.844Z,100791.75
2018-11-11T06:45:55.176Z,100793.94
2018-11-11T06:46:55.475Z,100794.87
2018-11-11T06:47:54.975Z,100796.13
2018-11-11T06:48:55.382Z,100797.95
2018-11-11T06:49:59.105Z,100799.64
2018-11-11T06:50:56.346Z,100801.41
2018-11-11T06:51:57.592Z,100802.25
2018-11-11T06:52:58.064Z,100802.59
2018-11-11T06:53:58.470Z,100803.44
2018-11-11T06:54:58.808Z,100804.16
2018-11-11T06:55:59.276Z,100805.00
2018-11-11T06:56:07.863Z,100820.16
2018-11-11T06:57:09.229Z,100819.77
2018-11-11T06:58:09.701Z,100819.60
2018-11-11T06:59:08.961Z,100819.27
2018-11-11T07:00:10.357Z,100819.27
2018-11-11T07:01:10.773Z,100819.35
2018-11-11T07:02:11.163Z,100819.35
2018-11-11T07:03:11.596Z,100819.52
2018-11-11T07:04:11.849Z,100819.61
2018-11-11T07:05:12.210Z,100819.30
2018-11-11T07:06:12.573Z,100819.81
2018-11-11T07:07:12.878Z,100819.86
2018-11-11T07:08:13.222Z,100819.86
2018-11-11T07:09:13.620Z,100819.73
2018-11-11T07:10:12.942Z,100819.98
2018-11-11T07:11:14.352Z,100820.75
2018-11-11T07:12:14.703Z,100821.03
2018-11-11T07:13:15.038Z,100821.12
2018-11-11T07:14:15.543Z,100821.28
2018-11-11T07:15:15.780Z,100821.88
2018-11-11T07:16:16.282Z,100822.64
2018-11-11T07:17:16.689Z,100823.27
2018-11-11T07:18:17.004Z,100823.69
2018-11-11T07:19:17.601Z,100824.28
2018-11-11T07:20:17.915Z,100825.34
2018-11-11T07:21:18.571Z,100826.09
2018-11-11T07:22:18.941Z,100827.03
2018-11-11T07:23:19.294Z,100828.17
2018-11-11T07:24:58.091Z,100849.03
2018-11-11T07:25:51.828Z,100848.28
2018-11-11T07:26:53.247Z,100848.70
2018-11-11T07:27:52.550Z,100849.11
2018-11-11T07:28:53.800Z,100850.26
2018-11-11T07:29:54.287Z,100851.27
2018-11-11T07:30:54.487Z,100852.70
2018-11-11T07:31:54.772Z,100853.63
2018-11-11T07:32:55.069Z,100855.11
2018-11-11T07:33:55.395Z,100856.71
2018-11-11T07:34:55.607Z,100858.05
2018-11-11T07:35:56.146Z,100859.45
2018-11-11T07:36:56.374Z,100860.68
2018-11-11T07:37:56.725Z,100861.98
2018-11-11T07:38:57.062Z,100863.47
2018-11-11T07:39:57.339Z,100864.35
2018-11-11T07:40:57.772Z,100865.66
2018-11-11T07:41:58.048Z,100866.42
2018-11-11T07:42:58.694Z,100868.28
2018-11-11T07:43:59.038Z,100869.93
2018-11-11T07:44:59.341Z,100871.58
2018-11-11T07:45:59.951Z,100873.81
2018-11-11T07:47:00.249Z,100875.28
2018-11-11T07:48:00.935Z,100877.23
2018-11-11T07:49:00.408Z,100878.80
2018-11-11T07:50:01.852Z,100880.66
2018-11-11T07:51:02.329Z,100882.52
2018-11-11T07:52:02.950Z,100883.36
2018-11-11T07:53:03.430Z,100884.88
2018-11-11T07:54:03.721Z,100886.70
2018-11-11T07:55:04.108Z,100888.81
2018-11-11T07:56:03.702Z,100890.72
2018-11-11T07:57:05.468Z,100892.11
2018-11-11T07:58:05.749Z,100894.52
2018-11-11T07:59:06.381Z,100896.59
2018-11-11T08:00:07.045Z,100899.00
2018-11-11T08:01:07.437Z,100901.48
2018-11-11T08:02:07.760Z,100902.58
2018-11-11T08:03:07.060Z,100904.23
2018-11-11T08:04:08.675Z,100905.54
2018-11-11T08:05:07.975Z,100906.73
2018-11-11T08:06:09.654Z,100907.52
2018-11-11T08:07:09.997Z,100907.98
2018-11-11T08:08:10.286Z,100908.23
2018-11-11T08:09:10.644Z,100908.19
2018-11-11T08:10:10.916Z,100908.09
2018-11-11T08:11:11.290Z,100908.09
2018-11-11T08:12:10.463Z,100908.18
2018-11-11T08:13:12.161Z,100908.26
2018-11-11T08:14:12.979Z,100909.48
2018-11-11T08:15:27.453Z,100919.13
2018-11-11T08:16:27.462Z,100918.63
2018-11-11T08:17:26.736Z,100918.37
2018-11-11T08:18:28.365Z,100918.33
2018-11-11T08:19:28.722Z,100917.39
2018-11-11T08:20:29.069Z,100916.70
2018-11-11T08:21:38.338Z,100915.19
2018-11-11T08:22:29.090Z,100912.98
2018-11-11T08:23:30.373Z,100911.25
2018-11-11T08:24:30.684Z,100909.30
2018-11-11T08:25:30.999Z,100907.73
2018-11-11T08:26:30.270Z,100906.30
2018-11-11T08:27:32.033Z,100905.75
2018-11-11T08:28:32.511Z,100904.98
2018-11-11T08:29:33.063Z,100904.97
2018-11-11T08:30:33.486Z,100905.44
2018-11-11T08:31:34.074Z,100906.03
2018-11-11T08:32:34.490Z,100906.74
2018-11-11T08:33:34.795Z,100906.83
2018-11-11T08:34:35.249Z,100907.46
2018-11-11T08:35:35.699Z,100908.30
2018-11-11T08:36:36.060Z,100909.23
2018-11-11T08:37:36.685Z,100910.17
2018-11-11T08:38:37.659Z,100910.72
2018-11-11T08:39:38.505Z,100911.74
2018-11-11T08:40:39.333Z,100912.63
2018-11-11T08:41:39.138Z,100913.39
2018-11-11T08:42:40.407Z,100914.33
2018-11-11T08:43:40.768Z,100914.97
2018-11-11T08:44:41.106Z,100915.69
2018-11-11T08:45:41.365Z,100916.88
2018-11-11T08:46:41.723Z,100918.02
2018-11-11T08:47:42.152Z,100919.25
2018-11-11T08:48:42.431Z,100920.43
2018-11-11T08:49:42.920Z,100921.37
2018-11-11T08:50:51.547Z,100923.06
2018-11-11T08:51:43.012Z,100923.56
2018-11-11T08:52:44.349Z,100924.33
2018-11-11T08:53:46.790Z,100924.63
2018-11-11T08:54:43.680Z,100924.83
2018-11-11T08:55:45.318Z,100925.37
2018-11-11T08:56:45.714Z,100925.16
2018-11-11T08:57:46.027Z,100925.75
2018-11-11T08:58:45.304Z,100926.08
2018-11-11T08:59:47.154Z,100926.32
2018-11-11T09:00:47.439Z,100926.91
2018-11-11T09:01:48.240Z,100927.15
2018-11-11T09:02:48.709Z,100929.13
2018-11-11T09:04:13.229Z,100942.15
2018-11-11T09:05:13.802Z,100941.90
2018-11-11T09:06:14.441Z,100942.88
2018-11-11T09:07:15.163Z,100942.70
2018-11-11T09:08:14.728Z,100942.88
2018-11-11T09:09:15.925Z,100943.30
2018-11-11T09:10:16.411Z,100943.59
2018-11-11T09:11:16.772Z,100944.56
2018-11-11T09:12:16.154Z,100945.61
2018-11-11T09:13:17.327Z,100946.36
2018-11-11T09:14:17.691Z,100947.16
2018-11-11T09:15:18.016Z,100948.50
2018-11-11T09:16:18.365Z,100949.67
2018-11-11T09:17:18.529Z,100950.21
2018-11-11T09:18:18.159Z,100951.04
2018-11-11T09:19:19.524Z,100952.04
2018-11-11T09:20:19.920Z,100951.91
2018-11-11T09:21:20.642Z,100952.22
2018-11-11T09:22:26.359Z,100952.20
2018-11-11T09:23:24.738Z,100952.31
2018-11-11T09:24:22.117Z,100951.87
2018-11-11T09:25:22.394Z,100951.56
2018-11-11T09:26:22.811Z,100950.78
2018-11-11T09:27:23.180Z,100950.52
2018-11-11T09:28:26.545Z,100949.31
2018-11-11T09:29:26.720Z,100949.66
2018-11-11T09:30:23.302Z,100949.14
2018-11-11T09:31:23.474Z,100949.72
2018-11-11T09:32:24.722Z,100949.70
2018-11-11T09:33:23.980Z,100949.69
2018-11-11T09:34:25.417Z,100949.25
2018-11-11T09:35:25.812Z,100949.83
2018-11-11T09:38:45.146Z,100948.53
2018-11-11T09:39:46.434Z,100948.11
2018-11-11T09:40:46.868Z,100948.36
2018-11-11T09:41:47.105Z,100948.03
2018-11-11T09:42:50.460Z,100947.98
2018-11-11T09:44:07.791Z,100948.16
2018-11-11T09:44:47.296Z,100947.98
2018-11-11T09:45:48.598Z,100947.98
2018-11-11T09:46:48.905Z,100948.16
2018-11-11T09:47:49.356Z,100948.62
2018-11-11T09:49:26.299Z,100948.53
2018-11-11T09:50:21.682Z,100952.10
2018-11-11T09:57:57.236Z,100964.48
2018-11-11T10:00:00.062Z,100972.41
2018-11-11T10:00:59.204Z,100971.64
2018-11-11T10:02:00.396Z,100970.80
2018-11-11T10:03:06.245Z,100970.88
2018-11-11T10:04:08.220Z,100970.79
2018-11-11T10:05:00.130Z,100970.28
2018-11-11T10:06:00.710Z,100969.65
2018-11-11T10:07:01.999Z,100968.95
2018-11-11T10:08:01.037Z,100967.56
2018-11-11T10:10:19.857Z,100967.33
2018-11-11T10:10:24.350Z,100966.39
2018-11-11T10:11:05.820Z,100965.41
2018-11-11T10:12:06.950Z,100963.48
2018-11-11T10:13:07.563Z,100961.73
2018-11-11T10:14:03.857Z,100961.00
2018-11-11T10:15:05.337Z,100960.53
2018-11-11T10:16:38.356Z,100949.40
2018-11-11T10:17:38.219Z,100948.81
2018-11-11T10:18:38.654Z,100948.56
2018-11-11T10:19:39.147Z,100948.55
2018-11-11T10:20:39.464Z,100949.27
2018-11-11T10:21:39.737Z,100949.17
2018-11-11T10:22:40.025Z,100949.56
2018-11-11T10:23:40.404Z,100949.69
2018-11-11T10:24:40.744Z,100949.77
2018-11-11T10:25:41.042Z,100950.02
2018-11-11T10:26:41.455Z,100950.41
2018-11-11T10:27:41.811Z,100951.08
2018-11-11T10:28:42.325Z,100951.71
2018-11-11T10:29:42.664Z,100952.84
2018-11-11T10:30:42.012Z,100954.10
2018-11-11T10:31:43.297Z,100955.03
2018-11-11T10:32:43.611Z,100955.66
2018-11-11T10:33:44.029Z,100956.53
2018-11-11T10:34:43.183Z,100957.41
2018-11-11T10:35:44.567Z,100958.41
2018-11-11T10:36:45.257Z,100959.31
2018-11-11T10:37:45.547Z,100959.81
2018-11-11T10:38:46.028Z,100960.55
2018-11-11T10:39:46.090Z,100961.30
2018-11-11T10:40:46.688Z,100962.05
2018-11-11T10:41:47.087Z,100963.26
2018-11-11T10:42:47.620Z,100964.27
2018-11-11T10:43:48.241Z,100964.89
2018-11-11T10:44:48.860Z,100966.35
2018-11-11T10:45:49.280Z,100967.19
2018-11-11T10:46:49.564Z,100968.31
2018-11-11T10:47:49.857Z,100968.79
2018-11-11T10:48:50.328Z,100969.15
2018-11-11T10:49:50.708Z,100969.55
2018-11-11T10:50:50.999Z,100970.44
2018-11-11T10:51:51.748Z,100971.27
2018-11-11T10:52:52.045Z,100971.58
2018-11-11T10:53:52.372Z,100971.17
2018-11-11T10:54:52.776Z,100971.88
2018-11-11T10:55:53.103Z,100972.83
2018-11-11T10:56:53.394Z,100973.13
2018-11-11T10:57:53.694Z,100972.98
2018-11-11T10:58:54.510Z,100972.97
2018-11-11T10:59:54.370Z,100972.62
2018-11-11T11:00:55.727Z,100972.93
2018-11-11T11:01:55.978Z,100972.39
2018-11-11T11:02:56.285Z,100972.40
2018-11-11T11:03:56.798Z,100972.17
2018-11-11T11:04:10.896Z,100973.69
2018-11-11T11:05:11.414Z,100973.13
2018-11-11T11:06:11.709Z,100974.31
2018-11-11T11:07:10.916Z,100974.09
2018-11-11T11:08:12.137Z,100974.64
2018-11-11T11:09:12.430Z,100975.30
2018-11-11T11:10:12.718Z,100975.25
2018-11-11T11:11:11.973Z,100975.20
2018-11-11T11:12:13.236Z,100975.66
2018-11-11T11:13:13.709Z,100976.17
2018-11-11T11:14:12.964Z,100976.66
2018-11-11T11:15:14.387Z,100976.56
2018-11-11T11:16:14.807Z,100976.22
2018-11-11T11:17:15.145Z,100975.51
2018-11-11T11:18:15.680Z,100975.84
2018-11-11T11:19:15.202Z,100976.03
2018-11-11T11:20:16.698Z,100976.71
2018-11-11T11:21:16.492Z,100977.34
2018-11-11T11:22:18.179Z,100977.73
2018-11-11T11:23:18.477Z,100978.70
2018-11-11T11:24:18.767Z,100979.11
2018-11-11T11:25:20.081Z,100980.18
2018-11-11T11:26:19.385Z,100980.19
2018-11-11T11:27:19.700Z,100980.66
2018-11-11T11:28:19.037Z,100980.72
2018-11-11T11:29:20.336Z,100981.75
2018-11-11T11:30:20.719Z,100982.02
2018-11-11T11:31:21.072Z,100983.05
2018-11-11T11:32:20.453Z,100983.83
2018-11-11T11:33:21.877Z,100984.65
2018-11-11T11:34:22.153Z,100985.34
2018-11-11T11:35:22.640Z,100986.15
2018-11-11T11:36:21.845Z,100986.31
2018-11-11T11:37:23.308Z,100987.06
2018-11-11T11:38:23.623Z,100988.64
2018-11-11T11:39:22.731Z,100989.53
2018-11-11T11:40:23.968Z,100991.25
2018-11-11T11:41:24.717Z,100992.69
2018-11-11T11:43:04.474Z,101024.08
2018-11-11T11:44:05.361Z,101023.56